Time;durP1;ratioP1;P1;durP2;ratioP2;P2;SDS_P1;SDS_P2;PMS_P1;PMS_P2;Temp;Humidity;BMP_temperature;BMP_pressure;BME280_temperature;BME280_humidity;BME280_pressure;Samples;Min_cycle;Max_cycle;Signal;HPM_P1;HPM_P2
2023/08/03 00:00:03;;;;;;;6.70;5.10;;;;;;;20.31;84.41;98552.73;108976;1258;71423;-41
2023/08/03 00:02:37;;;;;;;5.90;5.20;;;;;;;20.35;84.49;98554.23;107855;1258;59591;-39
2023/08/03 00:05:06;;;;;;;7.80;5.50;;;;;;;20.38;84.47;98558.53;107213;1260;60153;-39
2023/08/03 00:07:34;;;;;;;6.90;5.90;;;;;;;20.37;84.47;98565.67;107266;1260;73502;-39
2023/08/03 00:10:02;;;;;;;7.30;5.40;;;;;;;20.37;84.36;98568.48;107179;1258;67581;-40
2023/08/03 00:12:29;;;;;;;5.70;5.10;;;;;;;20.40;84.47;98568.01;107158;1258;73203;-39
2023/08/03 00:14:57;;;;;;;6.20;5.20;;;;;;;20.42;84.32;98569.29;107140;1257;60057;-39
2023/08/03 00:17:25;;;;;;;7.40;5.90;;;;;;;20.43;84.41;98572.02;107196;1262;60042;-41
2023/08/03 00:19:59;;;;;;;8.00;5.60;;;;;;;20.39;84.18;98567.02;107142;1264;71601;-41
2023/08/03 00:22:27;;;;;;;7.10;5.30;;;;;;;20.39;83.92;98568.84;107110;1258;66661;-40
2023/08/03 00:24:54;;;;;;;7.40;5.00;;;;;;;20.41;83.47;98567.37;107134;1258;72760;-40
2023/08/03 00:27:22;;;;;;;6.60;4.80;;;;;;;20.42;83.34;98561.48;107118;1261;59621;-40
2023/08/03 00:29:50;;;;;;;10.70;5.40;;;;;;;20.44;83.10;98565.66;107018;1258;59539;-41
2023/08/03 00:32:18;;;;;;;6.00;4.90;;;;;;;20.44;83.18;98568.35;107058;1262;73059;-39
2023/08/03 00:34:45;;;;;;;6.20;5.30;;;;;;;20.47;82.88;98567.80;107209;1257;67580;-40
2023/08/03 00:37:13;;;;;;;6.50;4.90;;;;;;;20.51;82.70;98571.04;106881;1263;72830;-40
2023/08/03 00:39:41;;;;;;;5.90;5.00;;;;;;;20.55;82.51;98573.63;107099;1261;60132;-40
2023/08/03 00:42:09;;;;;;;6.30;5.30;;;;;;;20.55;82.33;98575.13;107087;1258;60038;-40
2023/08/03 00:44:37;;;;;;;5.80;5.30;;;;;;;20.55;82.61;98581.91;107138;1261;71754;-39
2023/08/03 00:47:05;;;;;;;9.90;5.20;;;;;;;20.60;82.22;98584.02;107113;1258;67523;-40
2023/08/03 00:49:33;;;;;;;5.60;5.00;;;;;;;20.64;82.05;98581.98;107163;1257;71957;-39
2023/08/03 00:52:01;;;;;;;6.60;5.80;;;;;;;20.68;81.68;98586.42;107215;1257;60047;-39
2023/08/03 00:54:28;;;;;;;7.50;5.40;;;;;;;20.66;81.55;98591.20;107048;1263;59611;-39
2023/08/03 00:56:57;;;;;;;6.40;5.10;;;;;;;20.61;81.89;98589.96;107037;1257;72377;-39
2023/08/03 00:59:24;;;;;;;7.60;4.90;;;;;;;20.61;81.78;98592.56;107058;1257;66161;-39
2023/08/03 01:01:52;;;;;;;5.50;4.70;;;;;;;20.63;81.60;98597.44;106965;1258;72822;-39
2023/08/03 01:04:20;;;;;;;5.60;4.70;;;;;;;20.64;81.62;98599.84;107119;1257;59621;-39
2023/08/03 01:06:48;;;;;;;6.50;4.90;;;;;;;20.63;81.33;98602.09;107143;1256;60408;-39
2023/08/03 01:09:16;;;;;;;6.80;4.80;;;;;;;20.60;81.27;98605.98;107161;1257;71737;-40
2023/08/03 01:11:43;;;;;;;5.80;4.60;;;;;;;20.59;81.05;98608.83;107097;1257;67623;-39
2023/08/03 01:14:12;;;;;;;7.40;4.90;;;;;;;20.62;81.08;98605.17;107117;1257;71426;-39
2023/08/03 01:16:39;;;;;;;6.60;4.70;;;;;;;20.65;80.81;98605.39;107101;1257;59816;-39
2023/08/03 01:19:07;;;;;;;7.30;5.00;;;;;;;20.63;80.58;98605.95;107149;1257;60113;-39
2023/08/03 01:21:35;;;;;;;6.10;4.70;;;;;;;20.54;80.40;98604.73;107055;1257;73117;-40
2023/08/03 01:24:02;;;;;;;6.40;4.70;;;;;;;20.47;80.51;98604.45;107224;1258;67648;-39
2023/08/03 01:26:30;;;;;;;4.90;4.10;;;;;;;20.40;80.82;98606.48;107021;1257;72744;-39
2023/08/03 01:28:58;;;;;;;4.90;4.40;;;;;;;20.36;81.15;98606.67;107293;1257;60047;-39
2023/08/03 01:31:30;;;;;;;8.10;4.40;;;;;;;20.33;81.12;98608.45;107173;1257;60511;-39
2023/08/03 01:33:57;;;;;;;5.50;4.00;;;;;;;20.25;81.17;98612.13;106981;1257;71753;-39
2023/08/03 01:36:26;;;;;;;4.40;4.00;;;;;;;20.19;81.14;98612.23;107067;1258;66638;-39
2023/08/03 01:38:55;;;;;;;5.20;4.10;;;;;;;20.14;81.34;98611.59;107160;1262;72644;-39
2023/08/03 01:41:23;;;;;;;6.20;4.60;;;;;;;20.11;81.50;98613.27;107161;1258;60124;-39
2023/08/03 01:44:20;;;;;;;5.30;4.20;;;;;;;20.07;81.83;98612.95;107245;1258;60015;-39
2023/08/03 01:46:48;;;;;;;5.20;4.10;;;;;;;20.00;81.95;98613.14;107088;1257;73078;-39
2023/08/03 01:49:16;;;;;;;4.60;4.00;;;;;;;19.94;81.84;98613.01;107140;1258;68236;-39
2023/08/03 01:51:44;;;;;;;7.20;4.20;;;;;;;19.92;81.82;98617.79;107085;1257;72708;-39
2023/08/03 01:54:13;;;;;;;4.60;4.00;;;;;;;19.92;81.86;98620.88;107233;1257;60090;-39
2023/08/03 01:56:41;;;;;;;6.20;4.60;;;;;;;19.89;81.89;98625.83;107230;1260;59417;-40
2023/08/03 01:59:10;;;;;;;9.30;4.70;;;;;;;19.82;81.95;98629.98;107002;1264;72288;-40
2023/08/03 02:01:38;;;;;;;6.80;4.60;;;;;;;19.77;82.27;98630.12;107000;1257;67999;-40
2023/08/03 02:04:06;;;;;;;6.10;4.50;;;;;;;19.76;82.45;98630.70;107048;1259;72118;-40
2023/08/03 02:06:38;;;;;;;5.60;4.90;;;;;;;19.77;82.45;98632.88;107047;1258;59580;-37
2023/08/03 02:09:06;;;;;;;6.70;4.90;;;;;;;19.77;82.83;98637.75;107042;1258;59734;-39
2023/08/03 02:11:34;;;;;;;6.80;4.30;;;;;;;19.75;82.83;98639.45;107040;1257;73173;-39
2023/08/03 02:14:03;;;;;;;6.30;4.40;;;;;;;19.76;82.74;98639.02;107188;1257;66417;-39
2023/08/03 02:16:32;;;;;;;7.90;4.60;;;;;;;19.78;82.38;98642.04;107065;1257;71544;-38
2023/08/03 02:19:01;;;;;;;7.70;4.80;;;;;;;19.80;82.21;98646.54;107212;1259;59621;-39
2023/08/03 02:21:31;;;;;;;5.70;4.90;;;;;;;19.79;82.16;98650.52;107254;1262;62402;-40
2023/08/03 02:24:06;;;;;;;6.10;5.00;;;;;;;19.76;82.29;98648.71;107178;1257;71944;-38
2023/08/03 02:26:37;;;;;;;5.90;4.70;;;;;;;19.74;82.26;98645.77;106957;1257;66402;-38
2023/08/03 02:29:05;;;;;;;5.40;4.90;;;;;;;19.75;82.22;98653.45;107200;1258;70418;-39
2023/08/03 02:31:32;;;;;;;6.70;5.20;;;;;;;19.76;82.00;98655.23;107176;1262;60418;-39
2023/08/03 02:34:04;;;;;;;6.00;5.10;;;;;;;19.74;81.95;98655.45;107142;1257;60412;-37
2023/08/03 02:36:36;;;;;;;7.40;5.00;;;;;;;19.72;82.12;98657.48;107080;1258;74385;-40
2023/08/03 02:39:06;;;;;;;7.40;5.00;;;;;;;19.77;81.98;98664.80;107142;1257;68948;-45
2023/08/03 02:41:38;;;;;;;6.80;5.10;;;;;;;19.82;81.81;98672.65;107159;1257;71463;-39
2023/08/03 02:44:07;;;;;;;5.60;5.10;;;;;;;19.85;81.68;98671.15;107198;1257;59556;-39
2023/08/03 02:46:35;;;;;;;5.90;5.30;;;;;;;19.85;81.59;98672.78;107199;1262;60264;-38
2023/08/03 02:49:03;;;;;;;6.00;4.80;;;;;;;19.84;81.37;98675.33;107193;1257;72556;-39
2023/08/03 02:51:31;;;;;;;5.50;4.70;;;;;;;19.84;81.10;98680.52;107192;1258;66279;-39
2023/08/03 02:53:59;;;;;;;5.80;4.80;;;;;;;19.85;80.62;98681.70;107149;1260;71422;-38
2023/08/03 02:56:27;;;;;;;6.10;5.10;;;;;;;19.85;80.74;98686.09;107115;1260;60425;-39
2023/08/03 02:58:56;;;;;;;10.80;5.60;;;;;;;19.86;80.52;98682.43;107200;1257;60581;-39
2023/08/03 03:01:33;;;;;;;6.10;5.10;;;;;;;19.88;80.60;98680.10;107165;1257;72578;-39
2023/08/03 03:04:02;;;;;;;6.00;4.80;;;;;;;19.91;80.43;98682.06;107220;1257;67754;-38
2023/08/03 03:06:30;;;;;;;7.10;5.20;;;;;;;19.94;80.39;98685.81;107024;1257;72184;-38
2023/08/03 03:08:58;;;;;;;7.00;5.30;;;;;;;19.94;80.35;98685.73;106993;1257;59549;-39
2023/08/03 03:11:27;;;;;;;8.20;5.70;;;;;;;19.97;80.53;98687.54;107087;1258;60310;-39
2023/08/03 03:13:54;;;;;;;6.50;5.30;;;;;;;19.95;80.60;98680.81;107102;1257;72699;-39
2023/08/03 03:16:25;;;;;;;6.70;5.30;;;;;;;20.00;80.81;98678.88;107118;1257;66645;-39
2023/08/03 03:18:54;;;;;;;7.20;5.30;;;;;;;20.10;80.39;98684.55;107115;1257;71392;-39
2023/08/03 03:21:22;;;;;;;6.50;5.90;;;;;;;20.12;80.28;98685.11;107138;1257;59752;-39
2023/08/03 03:23:50;;;;;;;9.50;6.40;;;;;;;20.14;80.44;98686.48;107176;1257;60728;-39
2023/08/03 03:26:19;;;;;;;8.80;5.80;;;;;;;20.15;80.52;98688.57;107219;1257;73643;-39
2023/08/03 03:28:47;;;;;;;7.20;5.70;;;;;;;20.16;80.41;98692.54;107059;1257;65468;-39
2023/08/03 03:31:17;;;;;;;7.00;6.20;;;;;;;20.21;80.52;98693.88;107263;1258;72755;-39
2023/08/03 03:33:44;;;;;;;7.80;5.90;;;;;;;20.28;80.52;98692.95;107228;1257;60462;-39
2023/08/03 03:36:13;;;;;;;6.70;6.00;;;;;;;20.31;80.24;98687.94;107266;1257;60364;-39
2023/08/03 03:38:41;;;;;;;6.30;5.60;;;;;;;20.29;80.24;98683.24;107248;1262;72611;-39
2023/08/03 03:41:09;;;;;;;6.60;5.70;;;;;;;20.32;80.01;98688.44;107204;1257;67933;-39
2023/08/03 03:43:37;;;;;;;6.00;5.40;;;;;;;20.37;79.83;98695.14;107102;1262;72642;-39
2023/08/03 03:46:05;;;;;;;5.90;5.30;;;;;;;20.38;79.27;98697.75;107212;1257;60283;-39
2023/08/03 03:48:33;;;;;;;8.00;6.40;;;;;;;20.35;78.90;98699.03;107210;1257;60846;-39
2023/08/03 03:51:01;;;;;;;6.80;5.70;;;;;;;20.35;79.10;98703.77;107246;1257;73016;-39
2023/08/03 03:53:29;;;;;;;9.50;5.70;;;;;;;20.42;79.08;98700.98;107354;1257;66388;-39
2023/08/03 03:55:58;;;;;;;5.60;5.10;;;;;;;20.51;78.83;98696.29;107098;1259;71393;-39
2023/08/03 03:58:26;;;;;;;7.90;5.90;;;;;;;20.58;78.76;98694.89;107183;1257;60322;-39
2023/08/03 04:00:53;;;;;;;11.40;6.40;;;;;;;20.60;78.68;98699.92;107248;1257;59640;-39
2023/08/03 04:03:21;;;;;;;5.90;5.40;;;;;;;20.61;78.73;98701.78;107193;1257;72284;-39
2023/08/03 04:05:48;;;;;;;6.40;5.20;;;;;;;20.63;78.00;98709.96;107236;1257;68087;-39
2023/08/03 04:08:16;;;;;;;7.20;5.50;;;;;;;20.67;78.01;98715.61;107235;1257;72663;-39
2023/08/03 04:10:45;;;;;;;6.70;5.30;;;;;;;20.70;77.82;98725.79;107211;1261;60447;-39
2023/08/03 04:13:13;;;;;;;6.70;5.60;;;;;;;20.72;77.38;98723.48;107208;1257;60309;-39
2023/08/03 04:15:40;;;;;;;8.70;5.60;;;;;;;20.71;77.11;98721.59;107200;1257;72600;-39
2023/08/03 04:18:08;;;;;;;5.70;4.90;;;;;;;20.75;76.80;98725.07;107190;1257;67961;-39
2023/08/03 04:20:36;;;;;;;6.00;5.20;;;;;;;20.76;76.38;98727.95;107154;1257;71456;-39
2023/08/03 04:23:04;;;;;;;7.40;5.40;;;;;;;20.71;76.43;98730.88;107145;1257;60380;-39
2023/08/03 04:25:32;;;;;;;6.60;5.80;;;;;;;20.68;76.35;98735.33;107054;1257;60421;-39
2023/08/03 04:28:10;;;;;;;6.30;5.50;;;;;;;20.62;76.42;98739.36;107184;1257;72588;-38
2023/08/03 04:30:38;;;;;;;7.30;5.40;;;;;;;20.60;76.61;98744.47;107202;1257;66321;-39
2023/08/03 04:33:05;;;;;;;5.70;5.20;;;;;;;20.59;76.62;98747.47;107183;1257;71384;-39
2023/08/03 04:35:36;;;;;;;6.20;5.60;;;;;;;20.60;76.56;98748.09;107177;1258;60450;-39
2023/08/03 04:38:39;;;;;;;6.80;6.10;;;;;;;20.64;76.30;98747.49;107120;1256;59751;-39
2023/08/03 04:41:07;;;;;;;7.70;6.00;;;;;;;20.64;76.36;98749.05;107098;1257;72965;-39
2023/08/03 04:43:40;;;;;;;5.50;5.00;;;;;;;20.70;76.08;98752.47;107175;1257;66695;-39
2023/08/03 04:46:08;;;;;;;7.30;5.30;;;;;;;20.79;75.93;98755.75;107199;1257;72779;-39
2023/08/03 04:48:36;;;;;;;6.10;5.40;;;;;;;20.85;75.78;98758.52;107149;1257;60419;-39
2023/08/03 04:51:06;;;;;;;7.00;5.70;;;;;;;20.89;75.38;98764.88;107185;1263;60306;-39
2023/08/03 04:53:34;;;;;;;6.40;5.50;;;;;;;20.87;75.49;98767.06;107202;1257;72562;-38
2023/08/03 04:56:02;;;;;;;5.50;4.90;;;;;;;20.86;75.42;98769.36;107293;1257;67606;-39
2023/08/03 04:58:29;;;;;;;6.50;5.90;;;;;;;20.91;75.33;98769.91;107117;1257;71530;-39
2023/08/03 05:00:57;;;;;;;8.50;6.30;;;;;;;20.90;74.80;98772.25;107114;1258;60405;-39
2023/08/03 05:03:25;;;;;;;8.30;7.10;;;;;;;20.83;75.07;98770.08;107234;1257;60316;-39
2023/08/03 05:05:53;;;;;;;7.20;6.50;;;;;;;20.80;75.63;98776.10;107132;1257;73130;-39
2023/08/03 05:08:22;;;;;;;6.80;6.10;;;;;;;20.86;75.72;98780.94;107207;1257;66320;-39
2023/08/03 05:10:52;;;;;;;7.10;6.00;;;;;;;20.93;75.35;98780.09;107054;1263;73016;-39
2023/08/03 05:13:21;;;;;;;6.80;6.00;;;;;;;20.98;75.31;98785.29;107134;1257;60434;-39
2023/08/03 05:15:48;;;;;;;8.60;6.50;;;;;;;21.00;74.88;98788.98;107127;1257;60493;-38
2023/08/03 05:18:17;;;;;;;6.10;5.40;;;;;;;20.99;74.59;98792.73;107141;1257;73821;-38
2023/08/03 05:20:44;;;;;;;6.60;5.90;;;;;;;20.97;74.29;98790.56;107153;1257;67897;-39
2023/08/03 05:23:12;;;;;;;6.60;5.90;;;;;;;20.96;73.86;98799.38;107248;1257;71818;-39
2023/08/03 05:25:40;;;;;;;7.10;6.00;;;;;;;20.92;73.86;98803.16;107194;1258;60089;-39
2023/08/03 05:28:07;;;;;;;6.40;5.80;;;;;;;20.94;74.15;98801.44;107216;1257;60353;-39
2023/08/03 05:30:35;;;;;;;5.40;4.90;;;;;;;21.00;74.06;98797.48;107160;1261;73869;-39
2023/08/03 05:33:03;;;;;;;5.70;5.10;;;;;;;21.11;74.13;98796.02;107120;1257;67750;-39
2023/08/03 05:35:30;;;;;;;5.80;5.20;;;;;;;21.24;73.69;98790.60;107194;1260;71454;-38
2023/08/03 05:37:58;;;;;;;7.90;5.80;;;;;;;21.33;73.53;98782.20;107109;1258;60431;-39
2023/08/03 05:40:26;;;;;;;6.00;5.40;;;;;;;21.39;72.73;98785.04;107197;1258;60274;-39
2023/08/03 05:42:53;;;;;;;5.90;5.20;;;;;;;21.42;72.52;98790.86;107158;1257;73866;-39
2023/08/03 05:45:37;;;;;;;7.00;5.30;;;;;;;21.46;72.18;98791.02;107126;1257;70214;-40
2023/08/03 05:48:11;;;;;;;8.00;5.30;;;;;;;21.54;71.77;98787.84;107024;1257;72678;-40
2023/08/03 05:50:41;;;;;;;5.90;5.00;;;;;;;21.54;71.94;98789.95;106991;1257;60491;-40
2023/08/03 05:53:10;;;;;;;5.30;4.70;;;;;;;21.51;72.18;98789.20;107190;1257;60534;-40
2023/08/03 05:55:47;;;;;;;5.60;5.00;;;;;;;21.49;72.15;98792.95;107154;1257;72627;-39
2023/08/03 05:58:32;;;;;;;5.70;4.70;;;;;;;21.51;71.84;98793.06;107053;1257;67950;-39
2023/08/03 06:01:00;;;;;;;7.00;5.00;;;;;;;21.55;71.81;98793.80;107008;1257;72635;-39
2023/08/03 06:03:27;;;;;;;5.60;5.10;;;;;;;21.60;71.39;98790.23;107101;1257;60434;-39
2023/08/03 06:05:57;;;;;;;6.00;5.30;;;;;;;21.65;71.24;98794.39;106952;1257;60412;-40
2023/08/03 06:08:25;;;;;;;6.70;5.20;;;;;;;21.70;71.01;98790.34;107094;1257;73857;-39
2023/08/03 06:10:57;;;;;;;6.80;5.00;;;;;;;21.81;70.65;98784.41;107111;1257;67690;-39
2023/08/03 06:13:38;;;;;;;5.30;4.80;;;;;;;21.99;70.63;98784.91;107125;1257;71168;-39
2023/08/03 06:16:11;;;;;;;4.70;4.20;;;;;;;22.13;70.51;98788.27;107242;1257;60518;-40
2023/08/03 06:18:54;;;;;;;6.60;3.80;;;;;;;22.22;68.74;98789.04;107242;1257;60457;-39
2023/08/03 06:21:23;;;;;;;4.50;3.70;;;;;;;22.20;67.92;98790.05;107309;1257;73869;-39
2023/08/03 06:23:53;;;;;;;5.50;4.00;;;;;;;22.20;67.65;98790.60;107106;1257;67572;-39
2023/08/03 06:26:21;;;;;;;3.90;3.50;;;;;;;22.20;67.56;98791.97;107147;1258;72500;-39
2023/08/03 06:28:53;;;;;;;4.40;3.30;;;;;;;22.19;67.46;98796.01;107123;1257;60380;-39
2023/08/03 06:31:38;;;;;;;4.00;3.60;;;;;;;22.20;67.26;98797.71;107198;1261;60322;-39
2023/08/03 06:34:09;;;;;;;5.40;4.00;;;;;;;22.26;67.47;98792.34;107228;1257;73139;-39
2023/08/03 06:36:37;;;;;;;4.20;3.80;;;;;;;22.33;67.48;98795.89;109027;1256;67597;-39
2023/08/03 06:39:04;;;;;;;7.00;3.90;;;;;;;22.38;67.16;98793.97;108976;1257;71148;-40
2023/08/03 06:41:32;;;;;;;4.50;4.10;;;;;;;22.36;66.58;98792.38;108994;1257;60447;-39
2023/08/03 06:44:00;;;;;;;4.60;3.70;;;;;;;22.41;66.78;98789.41;108025;1256;60284;-39
2023/08/03 06:46:27;;;;;;;4.40;3.70;;;;;;;22.53;66.50;98791.25;107144;1257;73816;-39
2023/08/03 06:48:55;;;;;;;4.10;3.30;;;;;;;22.62;65.90;98790.09;107070;1257;67594;-39
2023/08/03 06:51:23;;;;;;;4.20;3.30;;;;;;;22.68;65.43;98786.39;107046;1262;71487;-39
2023/08/03 06:53:50;;;;;;;3.60;3.20;;;;;;;22.71;65.38;98787.48;107138;1257;60212;-39
2023/08/03 06:56:18;;;;;;;4.90;3.30;;;;;;;22.71;65.22;98790.87;107199;1257;60424;-39
2023/08/03 06:58:45;;;;;;;3.80;2.90;;;;;;;22.71;65.38;98788.26;107152;1257;73908;-39
2023/08/03 07:01:13;;;;;;;4.50;2.90;;;;;;;22.75;64.77;98790.55;107097;1257;68086;-39
2023/08/03 07:03:41;;;;;;;4.20;3.20;;;;;;;22.83;64.39;98790.33;106982;1257;72655;-39
2023/08/03 07:06:09;;;;;;;4.20;2.80;;;;;;;22.92;64.54;98789.71;107140;1257;60307;-39
2023/08/03 07:08:36;;;;;;;3.80;2.90;;;;;;;23.02;64.55;98788.53;107106;1257;60408;-39
2023/08/03 07:11:04;;;;;;;4.00;3.30;;;;;;;23.12;64.76;98788.30;107113;1257;72571;-39
2023/08/03 07:13:31;;;;;;;4.60;3.60;;;;;;;23.24;64.59;98788.48;107224;1258;66281;-39
2023/08/03 07:16:09;;;;;;;5.00;3.50;;;;;;;23.33;64.16;98788.99;107149;1257;72704;-40
2023/08/03 07:18:37;;;;;;;3.60;2.80;;;;;;;23.38;63.65;98784.98;107237;1261;61694;-40
2023/08/03 07:21:05;;;;;;;3.50;2.90;;;;;;;23.43;63.39;98777.81;107194;1257;60334;-39
2023/08/03 07:23:33;;;;;;;5.90;3.40;;;;;;;23.48;62.93;98780.77;107099;1257;73901;-39
2023/08/03 07:26:00;;;;;;;4.80;3.10;;;;;;;23.48;63.08;98775.33;107136;1256;68024;-40
2023/08/03 07:28:28;;;;;;;3.10;2.80;;;;;;;23.46;62.46;98773.59;107093;1256;72726;-39
2023/08/03 07:30:56;;;;;;;3.50;3.20;;;;;;;23.44;61.92;98769.55;107014;1258;60310;-40
2023/08/03 07:33:24;;;;;;;5.70;2.80;;;;;;;23.40;61.69;98771.86;107086;1257;60431;-40
2023/08/03 07:35:51;;;;;;;4.50;3.30;;;;;;;23.45;61.47;98774.20;107195;1257;73305;-40
2023/08/03 07:38:19;;;;;;;4.00;3.30;;;;;;;23.50;61.67;98770.00;107171;1257;66777;-40
2023/08/03 07:40:46;;;;;;;2.70;2.50;;;;;;;23.58;61.62;98775.40;107122;1257;70701;-40
2023/08/03 07:43:14;;;;;;;4.20;2.50;;;;;;;23.68;60.72;98776.60;107150;1257;61748;-40
2023/08/03 07:45:42;;;;;;;3.00;2.70;;;;;;;23.78;59.91;98778.53;107247;1257;60310;-40
2023/08/03 07:48:12;;;;;;;3.30;2.80;;;;;;;23.84;59.26;98784.98;107201;1257;73903;-40
2023/08/03 07:50:40;;;;;;;3.50;2.40;;;;;;;23.87;58.99;98781.48;107198;1257;67174;-40
2023/08/03 07:53:08;;;;;;;4.20;2.60;;;;;;;23.93;58.52;98783.75;107151;1261;72664;-40
2023/08/03 07:55:35;;;;;;;4.90;2.80;;;;;;;24.00;59.24;98791.19;107058;1257;59454;-40
2023/08/03 07:58:03;;;;;;;3.20;2.40;;;;;;;24.10;58.84;98796.34;107175;1257;60025;-40
2023/08/03 08:00:30;;;;;;;9.70;4.20;;;;;;;24.23;58.50;98794.27;107094;1262;72615;-42
2023/08/03 08:02:58;;;;;;;5.40;3.10;;;;;;;24.41;58.32;98796.36;107120;1257;67898;-40
2023/08/03 08:05:26;;;;;;;3.40;2.90;;;;;;;24.56;58.31;98799.39;107143;1257;71197;-40
2023/08/03 08:07:54;;;;;;;3.80;3.30;;;;;;;24.64;58.23;98798.52;107167;1257;60571;-40
2023/08/03 08:10:22;;;;;;;3.20;2.90;;;;;;;24.66;57.66;98806.98;107180;1257;60440;-40
2023/08/03 08:12:51;;;;;;;3.50;2.50;;;;;;;24.58;56.52;98807.05;107200;1257;72558;-46
2023/08/03 08:15:20;;;;;;;3.50;2.50;;;;;;;24.49;56.96;98808.84;106966;1257;70016;-40
2023/08/03 08:17:48;;;;;;;5.40;2.80;;;;;;;24.47;56.70;98811.77;107132;1257;71369;-40
2023/08/03 08:20:16;;;;;;;6.40;3.30;;;;;;;24.51;58.05;98810.95;107068;1256;60492;-40
2023/08/03 08:22:43;;;;;;;5.10;3.60;;;;;;;24.52;58.91;98810.11;107039;1256;60396;-40
2023/08/03 08:25:11;;;;;;;3.90;3.10;;;;;;;24.53;59.31;98812.02;107102;1257;73777;-40
2023/08/03 08:27:39;;;;;;;4.80;3.30;;;;;;;24.60;59.80;98816.84;107063;1257;67987;-40
2023/08/03 08:30:08;;;;;;;7.90;3.40;;;;;;;24.66;59.47;98817.77;107132;1257;72748;-40
2023/08/03 08:32:35;;;;;;;3.30;2.90;;;;;;;24.72;59.27;98818.17;107278;1257;60581;-40
2023/08/03 08:35:04;;;;;;;3.50;3.20;;;;;;;24.82;58.75;98821.22;107208;1257;60389;-40
2023/08/03 08:37:32;;;;;;;4.00;3.20;;;;;;;24.90;58.76;98825.42;107176;1257;73861;-41
2023/08/03 08:39:59;;;;;;;4.60;3.50;;;;;;;24.97;58.44;98822.70;107084;1257;66236;-41
2023/08/03 08:42:30;;;;;;;4.00;3.10;;;;;;;25.06;57.95;98815.46;107226;1258;72791;-41
2023/08/03 08:44:57;;;;;;;3.60;2.80;;;;;;;25.15;56.90;98813.48;107164;1257;60399;-40
2023/08/03 08:47:25;;;;;;;3.30;2.90;;;;;;;25.19;56.35;98814.99;107021;1257;60306;-40
2023/08/03 08:49:54;;;;;;;3.00;2.70;;;;;;;25.22;55.95;98813.89;107090;1262;74305;-40
2023/08/03 08:52:43;;;;;;;3.50;3.10;;;;;;;25.26;56.06;98819.71;107089;1256;66645;-40
2023/08/03 08:55:17;;;;;;;4.20;2.80;;;;;;;25.28;55.62;98820.91;107192;1262;72683;-40
2023/08/03 08:58:05;;;;;;;3.10;2.80;;;;;;;25.31;54.81;98820.03;107120;1258;60501;-41
2023/08/03 09:00:43;;;;;;;3.70;3.00;;;;;;;25.34;54.88;98823.31;107200;1256;60040;-40
2023/08/03 09:03:12;;;;;;;3.20;2.90;;;;;;;25.40;55.26;98824.56;107283;1256;72639;-40
2023/08/03 09:05:40;;;;;;;3.90;3.00;;;;;;;25.52;55.91;98824.12;107260;1257;67874;-41
2023/08/03 09:08:16;;;;;;;2.90;2.70;;;;;;;25.66;54.14;98821.70;107258;1257;72702;-40
2023/08/03 09:10:51;;;;;;;3.60;2.80;;;;;;;25.72;53.56;98819.73;107178;1257;60429;-40
2023/08/03 09:13:31;;;;;;;4.60;2.90;;;;;;;25.73;53.07;98818.98;107298;1256;60043;-40
2023/08/03 09:15:59;;;;;;;3.40;2.80;;;;;;;25.73;52.69;98814.55;107268;1258;73916;-40
2023/08/03 09:18:27;;;;;;;4.50;2.70;;;;;;;25.73;52.28;98816.11;107181;1257;65846;-40
2023/08/03 09:21:09;;;;;;;3.10;2.90;;;;;;;25.74;51.94;98814.42;107181;1262;73252;-40
2023/08/03 09:23:40;;;;;;;3.10;2.80;;;;;;;25.77;51.45;98812.63;107190;1258;59524;-40
2023/08/03 09:26:11;;;;;;;6.60;2.80;;;;;;;25.83;51.90;98811.08;107115;1257;60488;-40
2023/08/03 09:28:42;;;;;;;2.80;2.50;;;;;;;25.89;51.84;98814.02;107113;1258;72360;-40
2023/08/03 09:31:10;;;;;;;3.30;2.40;;;;;;;25.93;51.01;98820.36;107135;1257;67596;-40
2023/08/03 09:33:59;;;;;;;2.90;2.60;;;;;;;25.94;51.37;98820.69;107078;1262;73150;-40
2023/08/03 09:36:27;;;;;;;3.00;2.70;;;;;;;25.99;51.50;98818.48;107125;1258;60351;-40
2023/08/03 09:39:10;;;;;;;4.10;3.40;;;;;;;26.04;51.61;98822.33;107257;1258;60482;-40
2023/08/03 09:41:40;;;;;;;3.90;2.80;;;;;;;26.11;51.57;98823.08;107118;1257;73851;-40
2023/08/03 09:44:14;;;;;;;3.70;3.30;;;;;;;26.16;51.36;98823.65;106942;1257;67775;-40
2023/08/03 09:46:42;;;;;;;4.50;3.30;;;;;;;26.19;51.74;98821.34;107117;1257;72777;-40
2023/08/03 09:49:10;;;;;;;3.70;3.00;;;;;;;26.24;51.12;98819.98;107062;1258;60467;-40
2023/08/03 09:51:43;;;;;;;2.80;2.60;;;;;;;26.29;51.68;98822.52;107180;1257;60313;-40
2023/08/03 09:54:45;;;;;;;2.80;2.60;;;;;;;26.38;51.17;98820.17;107131;1257;74305;-40
2023/08/03 09:57:16;;;;;;;2.70;2.50;;;;;;;26.45;49.09;98822.58;107072;1257;66421;-40
2023/08/03 09:59:47;;;;;;;2.90;2.30;;;;;;;26.43;48.71;98821.42;107023;1264;73023;-40
2023/08/03 10:02:16;;;;;;;3.30;2.60;;;;;;;26.46;48.87;98817.09;107084;1257;60337;-40
2023/08/03 10:04:53;;;;;;;2.90;2.60;;;;;;;26.51;48.31;98822.02;107101;1257;60066;-40
2023/08/03 10:07:22;;;;;;;4.80;2.50;;;;;;;26.57;48.87;98818.73;107202;1260;73909;-40
2023/08/03 10:09:50;;;;;;;2.50;2.30;;;;;;;26.67;48.49;98820.00;107194;1257;67895;-40
2023/08/03 10:12:25;;;;;;;2.50;2.20;;;;;;;26.77;48.64;98821.17;107129;1258;72724;-40
2023/08/03 10:14:53;;;;;;;2.60;2.40;;;;;;;26.88;48.27;98818.59;107191;1257;60378;-40
2023/08/03 10:17:21;;;;;;;2.80;2.40;;;;;;;26.96;47.47;98819.77;107012;1257;59888;-40
2023/08/03 10:19:48;;;;;;;2.40;2.20;;;;;;;27.07;46.30;98818.87;106981;1257;74873;-41
2023/08/03 10:22:16;;;;;;;3.20;2.40;;;;;;;27.19;45.69;98818.89;107150;1262;66868;-40
2023/08/03 10:25:17;;;;;;;3.70;2.20;;;;;;;27.34;45.74;98813.05;107180;1257;72324;-40
2023/08/03 10:28:13;;;;;;;2.60;2.40;;;;;;;27.46;45.99;98812.66;107152;1257;60838;-40
2023/08/03 10:31:02;;;;;;;3.20;2.20;;;;;;;27.63;46.60;98810.88;107119;1257;60424;-40
2023/08/03 10:33:51;;;;;;;2.40;2.20;;;;;;;27.79;46.55;98809.13;107031;1257;165336;-40
2023/08/03 10:37:35;;;;;;;3.20;2.30;;;;;;;28.01;45.82;98810.48;104101;1292;600427;-39
2023/08/03 10:40:03;;;;;;;2.50;2.00;;;;;;;28.14;44.54;98811.70;106451;1267;60054;-38
2023/08/03 10:42:32;;;;;;;3.80;2.20;;;;;;;28.23;43.48;98809.87;106688;1267;59265;-40
2023/08/03 10:45:37;;;;;;;3.30;2.60;;;;;;;28.31;44.20;98812.95;106740;1267;72183;-40
2023/08/03 10:48:37;;;;;;;4.10;2.40;;;;;;;28.43;43.46;98811.73;105947;1275;67954;-39
2023/08/03 10:51:05;;;;;;;2.30;2.00;;;;;;;28.58;44.06;98809.61;106492;1268;194807;-40
2023/08/03 10:53:33;;;;;;;4.10;2.20;;;;;;;28.75;43.31;98807.17;107072;1257;60080;-39
2023/08/03 10:56:05;;;;;;;2.50;2.30;;;;;;;28.83;43.62;98804.35;107097;1256;60107;-40
2023/08/03 10:58:50;;;;;;;2.50;2.20;;;;;;;28.84;44.13;98805.73;107332;1262;70975;-39
2023/08/03 11:01:22;;;;;;;2.80;2.50;;;;;;;28.91;43.56;98801.56;107212;1261;66348;-39
2023/08/03 11:03:50;;;;;;;3.20;2.50;;;;;;;29.03;42.21;98803.86;107119;1263;70840;-40
2023/08/03 11:06:18;;;;;;;3.10;2.10;;;;;;;29.05;41.91;98806.78;107174;1259;59618;-40
2023/08/03 11:08:46;;;;;;;3.50;2.40;;;;;;;29.05;41.71;98804.38;107114;1262;59667;-40
2023/08/03 11:11:16;;;;;;;3.10;2.20;;;;;;;29.06;42.76;98807.99;107190;1257;74749;-40
2023/08/03 11:13:44;;;;;;;2.30;2.10;;;;;;;29.15;42.55;98804.50;107162;1257;67382;-40
2023/08/03 11:16:16;;;;;;;2.60;2.10;;;;;;;29.36;42.66;98809.55;107085;1260;72724;-40
2023/08/03 11:18:47;;;;;;;6.30;2.40;;;;;;;29.58;41.69;98807.05;107148;1260;59612;-40
2023/08/03 11:21:15;;;;;;;2.20;2.00;;;;;;;29.71;41.23;98801.47;107155;1262;60046;-40
2023/08/03 11:23:43;;;;;;;2.20;2.00;;;;;;;29.79;41.12;98796.83;107142;1262;73075;-40
2023/08/03 11:26:11;;;;;;;2.90;2.20;;;;;;;29.99;41.13;98796.59;107195;1257;68054;-40
2023/08/03 11:28:40;;;;;;;4.50;2.70;;;;;;;30.23;40.91;98791.14;107039;1263;71440;-39
2023/08/03 11:31:18;;;;;;;4.50;2.40;;;;;;;30.48;40.53;98788.77;107166;1263;60578;-40
2023/08/03 11:33:52;;;;;;;3.00;2.30;;;;;;;30.66;40.00;98789.99;107188;1257;60008;-39
2023/08/03 11:36:22;;;;;;;2.90;2.10;;;;;;;30.91;40.92;98785.89;107121;1258;73094;-40
2023/08/03 11:38:52;;;;;;;3.20;2.40;;;;;;;31.22;40.04;98786.24;107192;1257;67636;-40